KRCA/RCA METAR and TAF weather

Enter ICAO airport designator
Station Type Date Time Source
KRCA METAR 2022/08/16 17:56 UTC NOAA

KRCA 161756Z AUTO 16008KT 10SM FEW180 28/16 A3012 RMK AO2 SLP177 T02820155 10282 20151 58003 $


Station Type Date Time Source
KRCA Decoded METAR 2022/08/16 17:56 UTC NOAA

Ellsworth Air Force Base, SD, United States (KRCA) 44-09N 103-06W
Aug 16, 2022 - 01:56 PM EDT / 2022.08.16 1756 UTC
Wind: from the SSE (160 degrees) at 9 MPH (8 KT):0
Visibility: 10 mile(s):0
Sky conditions: mostly clear
Temperature: 82.8 F (28.2 C)
Dew Point: 59.9 F (15.5 C)
Relative Humidity: 46%
Pressure (altimeter): 30.12 in. Hg (1019 hPa)
Pressure tendency: 0.01 inches (0.3 hPa) lower than three hours ago
ob: KRCA 161756Z AUTO 16008KT 10SM FEW180 28/16 A3012 RMK AO2 SLP177 T02820155 10282 20151 58003
cycle: 18

Station Type Date Time Source
KRCA TAF 2022/08/16 13:58 UTC NOAA

TAF
AMD KRCA 161345Z 1613/1717 18008KT 9999 FEW050 QNH3006INS
BECMG 1701/1702 12012G18KT 9999 SKC QNH3011INS
BECMG 1704/1705 18006KT 9999 SKC QNH3011INS TX32/1620Z TN17/1712Z

Example: see airport list